createdAt,value
2022-10-18T00:01:03.906Z,17.50
2022-10-18T00:03:32.472Z,18.60
2022-10-18T00:05:59.846Z,19.20
2022-10-18T00:08:27.792Z,19.70
2022-10-18T00:10:54.931Z,17.50
2022-10-18T00:13:22.265Z,17.60
2022-10-18T00:15:59.003Z,17.50
2022-10-18T00:18:26.160Z,17.50
2022-10-18T00:21:07.658Z,17.50
2022-10-18T00:23:35.928Z,17.50
2022-10-18T00:26:07.753Z,17.60
2022-10-18T00:28:36.842Z,17.60
2022-10-18T00:31:14.051Z,18.50
2022-10-18T00:33:43.516Z,17.60
2022-10-18T00:36:12.129Z,17.60
2022-10-18T00:38:39.526Z,17.70
2022-10-18T00:41:10.351Z,19.40
2022-10-18T00:44:01.100Z,17.60
2022-10-18T00:46:35.710Z,17.60
2022-10-18T00:49:14.044Z,17.60
2022-10-18T00:51:49.951Z,17.60
2022-10-18T00:54:19.389Z,18.40
2022-10-18T00:56:46.768Z,18.00
2022-10-18T00:59:17.106Z,19.60
2022-10-18T01:01:45.415Z,19.40
2022-10-18T01:04:15.853Z,17.60
2022-10-18T01:07:15.319Z,17.60
2022-10-18T01:09:54.684Z,17.50
2022-10-18T01:12:50.368Z,17.60
2022-10-18T01:15:31.512Z,17.60
2022-10-18T01:18:54.436Z,17.60
2022-10-18T01:21:24.315Z,17.60
2022-10-18T01:24:12.874Z,17.50
2022-10-18T01:26:39.688Z,17.60
2022-10-18T01:29:36.804Z,17.60
2022-10-18T01:32:12.708Z,17.60
2022-10-18T01:34:43.871Z,17.60
2022-10-18T01:37:18.511Z,19.30
2022-10-18T01:39:50.860Z,17.60
2022-10-18T01:42:21.209Z,17.60
2022-10-18T01:44:52.195Z,17.60
2022-10-18T01:47:21.325Z,17.60
2022-10-18T01:49:50.571Z,19.70
2022-10-18T01:52:17.512Z,19.60
2022-10-18T01:54:49.077Z,17.60
2022-10-18T01:57:42.795Z,17.60
2022-10-18T02:00:24.188Z,17.60
2022-10-18T02:03:06.608Z,17.60
2022-10-18T02:05:57.792Z,18.80
2022-10-18T02:08:28.521Z,17.60
2022-10-18T02:11:05.697Z,17.60
2022-10-18T02:13:57.849Z,17.50
2022-10-18T02:16:37.521Z,17.50
2022-10-18T02:19:18.600Z,17.50
2022-10-18T02:21:48.194Z,17.50
2022-10-18T02:24:17.403Z,17.50
2022-10-18T02:26:45.439Z,17.50
2022-10-18T02:29:13.480Z,17.50
2022-10-18T02:31:47.616Z,17.60
2022-10-18T02:34:35.740Z,17.50
2022-10-18T02:37:04.487Z,17.50
2022-10-18T02:39:48.128Z,18.90
2022-10-18T02:42:15.828Z,17.50
2022-10-18T02:44:43.038Z,18.30
2022-10-18T02:47:12.368Z,19.90
2022-10-18T02:49:39.467Z,17.50
2022-10-18T02:52:06.993Z,17.50
2022-10-18T02:54:33.857Z,15.80
2022-10-18T02:57:00.806Z,18.80
2022-10-18T02:59:27.815Z,18.30
2022-10-18T03:01:54.728Z,17.50
2022-10-18T03:04:21.699Z,15.50
2022-10-18T03:06:48.590Z,18.20
2022-10-18T03:09:15.485Z,19.50
2022-10-18T03:11:42.322Z,17.40
2022-10-18T03:14:09.200Z,19.30
2022-10-18T03:16:36.014Z,17.40
2022-10-18T03:19:03.217Z,17.50
2022-10-18T03:21:30.644Z,17.50
2022-10-18T03:23:58.921Z,17.50
2022-10-18T03:26:26.421Z,18.20
2022-10-18T03:28:54.612Z,19.20
2022-10-18T03:31:21.652Z,19.00
2022-10-18T03:33:48.788Z,17.40
2022-10-18T03:36:16.041Z,17.40
2022-10-18T03:38:43.281Z,18.70
2022-10-18T03:41:10.309Z,18.50
2022-10-18T03:43:37.425Z,18.40
2022-10-18T03:46:04.647Z,17.40
2022-10-18T03:48:31.982Z,17.40
2022-10-18T03:50:59.013Z,17.40
2022-10-18T03:53:26.057Z,18.80
2022-10-18T03:55:56.554Z,17.40
2022-10-18T03:58:24.750Z,17.40
2022-10-18T04:00:53.693Z,17.40
2022-10-18T04:03:22.690Z,18.70
2022-10-18T04:05:50.330Z,17.40
2022-10-18T04:08:18.527Z,17.30
2022-10-18T04:10:46.557Z,18.40
2022-10-18T04:13:14.219Z,19.70
2022-10-18T04:15:41.236Z,17.20
2022-10-18T04:18:08.290Z,15.80
2022-10-18T04:20:35.338Z,19.10
2022-10-18T04:23:02.324Z,17.70
2022-10-18T04:25:29.528Z,17.00
2022-10-18T04:27:56.830Z,18.30
2022-10-18T04:30:25.328Z,17.10
2022-10-18T04:32:52.279Z,17.10
2022-10-18T04:35:22.611Z,17.00
2022-10-18T04:37:49.579Z,17.00
2022-10-18T04:40:16.645Z,19.20
2022-10-18T04:42:43.653Z,17.00
2022-10-18T04:45:11.389Z,19.00
2022-10-18T04:47:38.516Z,16.80
2022-10-18T04:50:06.297Z,16.80
2022-10-18T04:52:33.181Z,16.80
2022-10-18T04:55:00.172Z,16.80
2022-10-18T04:57:27.119Z,16.70
2022-10-18T04:59:54.064Z,16.70
2022-10-18T05:02:20.939Z,16.70
2022-10-18T05:04:47.834Z,17.30
2022-10-18T05:07:14.778Z,18.30
2022-10-18T05:09:41.687Z,16.60
2022-10-18T05:12:08.607Z,18.00
2022-10-18T05:14:35.485Z,16.50
2022-10-18T05:17:02.451Z,18.60
2022-10-18T05:19:31.804Z,16.50
2022-10-18T05:21:58.992Z,16.50
2022-10-18T05:24:27.767Z,16.40
2022-10-18T05:26:54.892Z,16.40
2022-10-18T05:29:22.016Z,17.50
2022-10-18T05:31:49.956Z,16.40
2022-10-18T05:34:18.063Z,18.30
2022-10-18T05:36:45.061Z,18.40
2022-10-18T05:39:12.156Z,16.20
2022-10-18T05:41:39.087Z,16.30
2022-10-18T05:44:06.967Z,18.70
2022-10-18T05:46:34.359Z,16.20
2022-10-18T05:49:01.237Z,16.10
2022-10-18T05:51:28.296Z,16.20
2022-10-18T05:53:55.366Z,16.20
2022-10-18T05:56:22.381Z,16.10
2022-10-18T05:58:52.867Z,18.00
2022-10-18T06:01:20.727Z,16.10
2022-10-18T06:03:48.322Z,16.10
2022-10-18T06:06:15.808Z,16.00
2022-10-18T06:08:44.183Z,18.40
2022-10-18T06:11:18.504Z,16.20
2022-10-18T06:13:48.871Z,16.70
2022-10-18T06:16:19.999Z,18.30
2022-10-18T06:18:56.066Z,16.50
2022-10-18T06:21:24.756Z,17.20
2022-10-18T06:24:00.841Z,15.80
2022-10-18T06:26:28.962Z,15.80
2022-10-18T06:29:02.105Z,15.70
2022-10-18T06:31:29.675Z,17.70
2022-10-18T06:34:01.185Z,17.70
2022-10-18T06:36:29.573Z,18.50
2022-10-18T06:38:56.822Z,15.60
2022-10-18T06:41:24.317Z,17.40
2022-10-18T06:43:54.087Z,15.60
2022-10-18T06:46:21.132Z,17.10
2022-10-18T06:48:48.035Z,15.70
2022-10-18T06:51:15.431Z,15.70
2022-10-18T06:53:44.432Z,17.60
2022-10-18T06:56:25.974Z,16.70
2022-10-18T06:58:52.990Z,16.70
2022-10-18T07:01:20.935Z,15.80
2022-10-18T07:03:52.314Z,15.80
2022-10-18T07:06:20.561Z,15.80
2022-10-18T07:08:50.495Z,17.50
2022-10-18T07:11:22.793Z,15.90
2022-10-18T07:13:50.289Z,16.10
2022-10-18T07:16:19.703Z,15.90
2022-10-18T07:18:50.358Z,16.00
2022-10-18T07:21:20.885Z,16.00
2022-10-18T07:23:48.961Z,15.90
2022-10-18T07:26:22.675Z,16.00
2022-10-18T07:28:55.347Z,16.00
2022-10-18T07:31:24.123Z,18.00
2022-10-18T07:33:52.443Z,17.50
2022-10-18T07:36:21.353Z,16.10
2022-10-18T07:38:49.691Z,17.40
2022-10-18T07:41:20.176Z,17.70
2022-10-18T07:43:52.852Z,16.30
2022-10-18T07:46:22.300Z,17.50
2022-10-18T07:48:50.594Z,19.00
2022-10-18T07:51:19.797Z,16.50
2022-10-18T07:53:46.811Z,16.50
2022-10-18T07:56:21.180Z,16.60
2022-10-18T07:58:52.323Z,17.40
2022-10-18T08:01:24.215Z,16.80
2022-10-18T08:03:53.155Z,18.20
2022-10-18T08:06:22.643Z,18.90
2022-10-18T08:08:50.720Z,16.90
2022-10-18T08:11:22.791Z,17.00
2022-10-18T08:13:51.212Z,17.00
2022-10-18T08:16:22.556Z,17.10
2022-10-18T08:18:51.759Z,19.30
2022-10-18T08:21:21.328Z,17.20
2022-10-18T08:23:49.280Z,17.80
2022-10-18T08:26:21.207Z,17.30
2022-10-18T08:28:54.277Z,17.30
2022-10-18T08:31:34.146Z,17.40
2022-10-18T08:34:01.225Z,17.00
2022-10-18T08:36:28.315Z,18.40
2022-10-18T08:38:56.840Z,19.10
2022-10-18T08:41:41.660Z,17.60
2022-10-18T08:44:24.524Z,17.70
2022-10-18T08:47:18.436Z,17.70
2022-10-18T08:49:54.385Z,17.80
2022-10-18T08:53:01.148Z,17.80
2022-10-18T08:55:46.744Z,17.80
2022-10-18T08:58:26.642Z,17.80
2022-10-18T09:01:05.691Z,17.80
2022-10-18T09:04:01.403Z,17.20
2022-10-18T09:07:00.672Z,17.90
2022-10-18T09:09:55.300Z,18.40
2022-10-18T09:12:54.287Z,18.10
2022-10-18T09:15:47.464Z,18.20
2022-10-18T09:18:43.865Z,18.30
2022-10-18T09:21:24.052Z,18.40
2022-10-18T09:24:13.100Z,20.00
2022-10-18T09:26:47.927Z,18.60
2022-10-18T09:30:15.430Z,19.30
2022-10-18T09:33:01.973Z,18.70
2022-10-18T09:35:47.754Z,18.80
2022-10-18T09:38:21.542Z,18.90
2022-10-18T09:41:40.725Z,21.10
2022-10-18T09:44:27.024Z,19.10
2022-10-18T09:47:24.813Z,19.20
2022-10-18T09:50:00.272Z,20.30
2022-10-18T09:52:42.448Z,21.60
2022-10-18T09:55:22.257Z,19.40
2022-10-18T09:57:59.820Z,21.90
2022-10-18T10:00:35.219Z,19.70
2022-10-18T10:03:11.038Z,22.00
2022-10-18T10:05:37.902Z,19.90
2022-10-18T10:08:05.069Z,20.20
2022-10-18T10:10:33.606Z,20.20
2022-10-18T10:13:27.717Z,20.30
2022-10-18T10:16:03.070Z,20.50
2022-10-18T10:18:34.403Z,21.40
2022-10-18T10:21:13.278Z,20.60
2022-10-18T10:23:53.118Z,20.80
2022-10-18T10:26:28.951Z,20.90
2022-10-18T10:28:59.656Z,21.10
2022-10-18T10:31:34.808Z,21.20
2022-10-18T10:34:27.914Z,21.40
2022-10-18T10:36:56.347Z,21.60
2022-10-18T10:39:24.689Z,21.80
2022-10-18T10:41:59.029Z,22.00
2022-10-18T10:44:33.191Z,22.20
2022-10-18T10:47:00.411Z,23.80
2022-10-18T10:49:45.888Z,22.40
2022-10-18T10:52:28.063Z,22.50
2022-10-18T10:55:17.002Z,22.60
2022-10-18T10:57:48.690Z,22.60
2022-10-18T11:00:34.130Z,22.70
2022-10-18T11:03:30.647Z,22.80
2022-10-18T11:06:00.719Z,22.80
2022-10-18T11:08:36.145Z,24.00
2022-10-18T11:11:26.737Z,24.70
2022-10-18T11:14:26.199Z,23.00
2022-10-18T11:17:38.333Z,23.20
2022-10-18T11:20:27.626Z,23.40
2022-10-18T11:23:06.449Z,23.50
2022-10-18T11:25:49.072Z,23.60
2022-10-18T11:28:43.971Z,23.60
2022-10-18T11:31:31.847Z,23.90
2022-10-18T11:34:28.504Z,23.30
2022-10-18T11:37:44.072Z,23.10
2022-10-18T11:40:41.346Z,22.90
2022-10-18T11:43:57.203Z,22.80
2022-10-18T11:46:56.982Z,22.70
2022-10-18T11:50:26.201Z,22.60
2022-10-18T11:53:28.650Z,22.60
2022-10-18T11:56:31.589Z,22.60
2022-10-18T11:59:23.252Z,22.60
2022-10-18T12:02:24.166Z,22.70
2022-10-18T12:05:23.628Z,22.80
2022-10-18T12:08:15.576Z,22.90
2022-10-18T12:11:04.730Z,22.90
2022-10-18T12:14:03.886Z,22.90
2022-10-18T12:17:20.218Z,22.90
2022-10-18T12:19:33.126Z,23.20
2022-10-18T12:22:42.923Z,23.00
2022-10-18T12:25:15.280Z,23.00
2022-10-18T12:28:26.007Z,25.10
2022-10-18T12:31:34.937Z,23.00
2022-10-18T12:34:24.679Z,23.00
2022-10-18T12:37:10.459Z,22.30
2022-10-18T12:42:52.155Z,22.80
2022-10-18T12:45:35.433Z,22.80
2022-10-18T12:48:07.728Z,22.80
2022-10-18T12:50:38.403Z,25.00
2022-10-18T12:53:22.941Z,22.80
2022-10-18T12:55:52.190Z,22.80
2022-10-18T12:58:23.027Z,22.80
2022-10-18T13:00:49.825Z,22.80
2022-10-18T13:03:17.236Z,22.70
2022-10-18T13:05:55.524Z,22.60
2022-10-18T13:08:33.977Z,22.60
2022-10-18T13:11:10.160Z,22.70
2022-10-18T13:13:46.972Z,22.60
2022-10-18T13:16:22.884Z,23.00
2022-10-18T13:19:16.392Z,22.50
2022-10-18T13:22:18.051Z,22.50
2022-10-18T13:25:20.283Z,22.50
2022-10-18T13:28:03.555Z,22.50
2022-10-18T13:30:47.919Z,22.60
2022-10-18T13:33:38.573Z,22.60
2022-10-18T13:36:22.594Z,22.60
2022-10-18T13:39:04.790Z,23.40
2022-10-18T13:41:53.675Z,22.60
2022-10-18T13:44:39.917Z,22.60
2022-10-18T13:47:06.979Z,22.50
2022-10-18T13:49:48.329Z,22.60
2022-10-18T13:52:52.225Z,22.50
2022-10-18T13:55:53.473Z,22.50
2022-10-18T13:59:20.858Z,22.50
2022-10-18T14:02:36.376Z,22.60
2022-10-18T14:05:25.815Z,22.50
2022-10-18T14:08:05.780Z,22.40
2022-10-18T14:11:08.030Z,24.40
2022-10-18T14:13:51.961Z,22.30
2022-10-18T14:16:44.920Z,23.60
2022-10-18T14:19:41.295Z,21.90
2022-10-18T14:22:36.674Z,22.20
2022-10-18T14:25:23.314Z,22.10
2022-10-18T14:28:10.049Z,22.10
2022-10-18T14:31:10.548Z,22.00
2022-10-18T14:33:57.090Z,22.00
2022-10-18T14:36:48.482Z,22.00
2022-10-18T14:39:28.099Z,22.60
2022-10-18T14:41:59.334Z,21.90
2022-10-18T14:44:31.457Z,21.90
2022-10-18T14:47:22.324Z,21.80
2022-10-18T14:49:50.945Z,22.90
2022-10-18T14:52:35.517Z,21.60
2022-10-18T14:55:03.688Z,21.60
2022-10-18T14:57:37.591Z,21.50
2022-10-18T15:00:09.080Z,21.50
2022-10-18T15:02:38.806Z,21.50
2022-10-18T15:05:17.497Z,21.60
2022-10-18T15:07:45.047Z,21.50
2022-10-18T15:10:27.229Z,21.50
2022-10-18T15:13:09.836Z,21.60
2022-10-18T15:15:39.099Z,23.70
2022-10-18T15:18:15.141Z,21.60
2022-10-18T15:20:42.969Z,21.40
2022-10-18T15:23:28.562Z,21.50
2022-10-18T15:26:14.322Z,23.10
2022-10-18T15:28:51.046Z,21.60
2022-10-18T15:31:34.885Z,23.30
2022-10-18T15:34:24.934Z,21.60
2022-10-18T15:36:55.322Z,21.60
2022-10-18T15:39:31.303Z,21.50
2022-10-18T15:42:04.433Z,21.50
2022-10-18T15:44:48.953Z,21.40
2022-10-18T15:47:24.236Z,18.90
2022-10-18T15:50:01.708Z,21.30
2022-10-18T15:52:39.798Z,21.20
2022-10-18T15:55:31.310Z,21.20
2022-10-18T15:58:21.565Z,21.10
2022-10-18T16:00:50.854Z,21.50
2022-10-18T16:03:22.009Z,20.90
2022-10-18T16:05:53.324Z,20.80
2022-10-18T16:08:28.837Z,20.60
2022-10-18T16:10:56.607Z,20.60
2022-10-18T16:13:23.555Z,20.50
2022-10-18T16:15:50.977Z,20.40
2022-10-18T16:18:20.318Z,20.30
2022-10-18T16:20:48.757Z,20.30
2022-10-18T16:23:32.486Z,20.10
2022-10-18T16:25:59.475Z,20.60
2022-10-18T16:28:28.069Z,19.90
2022-10-18T16:31:03.493Z,19.70
2022-10-18T16:33:31.491Z,21.60
2022-10-18T16:35:59.955Z,19.50
2022-10-18T16:38:35.492Z,19.20
2022-10-18T16:41:07.927Z,19.40
2022-10-18T16:43:35.883Z,18.80
2022-10-18T16:46:04.517Z,20.60
2022-10-18T16:48:34.783Z,18.40
2022-10-18T16:51:02.128Z,19.50
2022-10-18T16:53:31.558Z,18.40
2022-10-18T16:56:02.372Z,17.80
2022-10-18T16:58:34.119Z,17.70
2022-10-18T17:01:03.004Z,17.90
2022-10-18T17:03:32.307Z,17.30
2022-10-18T17:06:02.279Z,17.20
2022-10-18T17:08:31.196Z,17.20
2022-10-18T17:11:00.842Z,16.80
2022-10-18T17:13:27.911Z,18.70
2022-10-18T17:15:54.775Z,16.50
2022-10-18T17:18:27.872Z,16.40
2022-10-18T17:20:55.033Z,16.40
2022-10-18T17:23:21.967Z,16.10
2022-10-18T17:26:04.716Z,15.90
2022-10-18T17:28:34.102Z,15.80
2022-10-18T17:31:01.006Z,15.60
2022-10-18T17:33:27.984Z,15.50
2022-10-18T17:35:54.958Z,15.40
2022-10-18T17:38:21.811Z,15.20
2022-10-18T17:40:48.647Z,15.20
2022-10-18T17:43:15.511Z,15.30
2022-10-18T17:45:50.921Z,17.10
2022-10-18T17:48:18.283Z,16.00
2022-10-18T17:50:45.534Z,14.80
2022-10-18T17:53:13.200Z,14.70
2022-10-18T17:55:40.435Z,13.60
2022-10-18T17:58:07.481Z,14.60
2022-10-18T18:00:35.094Z,16.50
2022-10-18T18:03:02.391Z,15.40
2022-10-18T18:05:33.917Z,16.30
2022-10-18T18:08:03.931Z,15.30
2022-10-18T18:10:34.241Z,14.40
2022-10-18T18:13:02.558Z,14.30
2022-10-18T18:15:29.874Z,16.10
2022-10-18T18:17:57.853Z,14.20
2022-10-18T18:20:26.210Z,15.60
2022-10-18T18:22:53.272Z,14.10
2022-10-18T18:25:20.132Z,14.00
2022-10-18T18:27:47.874Z,13.90
2022-10-18T18:30:17.651Z,15.70
2022-10-18T18:32:44.666Z,14.30
2022-10-18T18:35:11.522Z,14.80
2022-10-18T18:37:38.499Z,13.90
2022-10-18T18:40:06.053Z,14.40
2022-10-18T18:42:33.412Z,13.60
2022-10-18T18:45:00.458Z,15.20
2022-10-18T18:47:27.997Z,13.50
2022-10-18T18:49:55.003Z,14.30
2022-10-18T18:52:21.927Z,12.20
2022-10-18T18:54:48.832Z,13.40
2022-10-18T18:57:17.032Z,13.40
2022-10-18T18:59:43.828Z,15.70
2022-10-18T19:02:11.141Z,13.30
2022-10-18T19:04:38.152Z,13.90
2022-10-18T19:07:04.998Z,13.20
2022-10-18T19:09:32.699Z,13.10
2022-10-18T19:11:59.646Z,15.50
2022-10-18T19:14:26.590Z,13.10
2022-10-18T19:16:58.712Z,13.60
2022-10-18T19:19:29.789Z,13.00
2022-10-18T19:22:01.324Z,12.90
2022-10-18T19:24:30.516Z,13.40
2022-10-18T19:27:03.646Z,14.20
2022-10-18T19:29:36.707Z,13.00
2022-10-18T19:32:08.351Z,12.70
2022-10-18T19:34:39.063Z,12.60
2022-10-18T19:37:05.997Z,14.00
2022-10-18T19:39:35.411Z,13.50
2022-10-18T19:42:08.775Z,13.30
2022-10-18T19:44:37.404Z,12.40
2022-10-18T19:47:06.842Z,14.10
2022-10-18T19:49:33.896Z,13.60
2022-10-18T19:52:01.538Z,12.30
2022-10-18T19:54:28.585Z,12.20
2022-10-18T19:56:55.702Z,13.80
2022-10-18T19:59:23.940Z,13.30
2022-10-18T20:01:50.898Z,11.00
2022-10-18T20:04:17.872Z,12.10
2022-10-18T20:06:44.831Z,12.10
2022-10-18T20:09:17.667Z,12.10
2022-10-18T20:11:49.894Z,14.20
2022-10-18T20:14:16.962Z,12.00
2022-10-18T20:16:43.876Z,12.00
2022-10-18T20:19:11.841Z,12.90
2022-10-18T20:21:40.050Z,12.00
2022-10-18T20:24:07.813Z,12.00
2022-10-18T20:26:35.835Z,12.00
2022-10-18T20:29:03.855Z,12.90
2022-10-18T20:31:35.617Z,12.90
2022-10-18T20:34:10.347Z,12.00
2022-10-18T20:36:39.473Z,12.00
2022-10-18T20:39:07.724Z,12.00
2022-10-18T20:41:39.739Z,14.40
2022-10-18T20:44:15.802Z,13.30
2022-10-18T20:46:44.083Z,12.50
2022-10-18T20:49:15.789Z,12.00
2022-10-18T20:51:42.977Z,12.00
2022-10-18T20:54:11.526Z,12.00
2022-10-18T20:56:39.464Z,11.90
2022-10-18T20:59:09.733Z,12.00
2022-10-18T21:01:39.208Z,12.00
2022-10-18T21:04:09.606Z,11.90
2022-10-18T21:06:43.263Z,13.10
2022-10-18T21:09:17.985Z,11.90
2022-10-18T21:11:49.436Z,13.60
2022-10-18T21:14:20.130Z,14.10
2022-10-18T21:16:48.555Z,11.80
2022-10-18T21:19:18.488Z,11.80
2022-10-18T21:21:52.239Z,11.80
2022-10-18T21:24:21.497Z,13.70
2022-10-18T21:26:49.103Z,12.80
2022-10-18T21:29:21.645Z,11.70
2022-10-18T21:31:52.606Z,11.70
2022-10-18T21:34:19.556Z,12.90
2022-10-18T21:36:48.132Z,13.30
2022-10-18T21:39:19.820Z,11.50
2022-10-18T21:41:50.658Z,11.50
2022-10-18T21:44:18.063Z,13.70
2022-10-18T21:46:46.714Z,13.20
2022-10-18T21:49:15.224Z,11.50
2022-10-18T21:51:42.903Z,13.70
2022-10-18T21:54:15.410Z,11.40
2022-10-18T21:56:42.649Z,12.00
2022-10-18T21:59:12.846Z,11.80
2022-10-18T22:01:40.476Z,12.70
2022-10-18T22:04:18.658Z,11.50
2022-10-18T22:06:45.540Z,11.30
2022-10-18T22:09:12.422Z,13.00
2022-10-18T22:11:47.988Z,11.40
2022-10-18T22:14:14.941Z,11.20
2022-10-18T22:16:42.013Z,11.20
2022-10-18T22:19:09.063Z,11.20
2022-10-18T22:21:36.377Z,13.40
2022-10-18T22:24:09.312Z,11.10
2022-10-18T22:26:40.779Z,11.10
2022-10-18T22:29:12.479Z,11.00
2022-10-18T22:31:44.685Z,12.00
2022-10-18T22:34:16.363Z,13.50
2022-10-18T22:36:43.527Z,12.20
2022-10-18T22:39:13.065Z,13.20
2022-10-18T22:41:41.331Z,10.80
2022-10-18T22:44:08.440Z,12.90
2022-10-18T22:46:35.778Z,13.00
2022-10-18T22:49:02.638Z,10.70
2022-10-18T22:51:30.758Z,12.60
2022-10-18T22:53:57.769Z,12.00
2022-10-18T22:56:25.112Z,10.60
2022-10-18T22:58:52.754Z,10.50
2022-10-18T23:01:25.021Z,10.40
2022-10-18T23:04:00.631Z,10.40
2022-10-18T23:06:32.896Z,10.40
2022-10-18T23:09:05.070Z,10.40
2022-10-18T23:11:33.260Z,10.40
2022-10-18T23:14:03.584Z,10.40
2022-10-18T23:16:32.049Z,11.50
2022-10-18T23:19:00.394Z,10.30
2022-10-18T23:21:29.071Z,10.30
2022-10-18T23:23:58.609Z,10.30
2022-10-18T23:26:28.258Z,10.30
2022-10-18T23:28:56.029Z,12.30
2022-10-18T23:31:31.495Z,10.30
2022-10-18T23:34:03.154Z,10.10
2022-10-18T23:36:32.945Z,12.30
2022-10-18T23:38:59.945Z,11.40
2022-10-18T23:41:27.045Z,9.50
2022-10-18T23:47:09.830Z,11.40
2022-10-18T23:49:37.368Z,11.50
2022-10-18T23:52:04.401Z,12.30
2022-10-18T23:54:31.409Z,10.20
2022-10-18T23:56:58.666Z,10.30
2022-10-18T23:59:26.161Z,10.20
